Gotham, Wisconsin
Current Conditions -  °F | °C
As of 2:56 PM on Friday 19 Dec 2014 (Local Time) from KLNR Reporting Station
Overcast Overcast  
Wind Chill: 32°   Ceiling: 3700
Heat Index: 32°   Visibility: 10mi
Dew Point: 18°   Wind: 0mph
Humidity: 56%   Direction: NA
Pressure: 30.27"   Gusts: NA
Location:  43.22°N, 90.29°W
Report Text: KLNR 192056Z AUTO 00000KT 10SM OVC037 00/M08 A3027 RMK AO2 SLP255 T00001078 55012
Loading
Personal Weather Stations






























Interactive Weather Map New forecast layout! Learn more

10-Day Weather Forecast

Advertisements
Track Severe Weather on mobile